sensor_id;sensor_type;location;lat;lon;timestamp;temperature;humidity
14049;DHT22;7099;53.922;10.728;2023-10-19T00:03:03;8.20;93.70
14049;DHT22;7099;53.922;10.728;2023-10-19T00:07:09;8.10;93.70
14049;DHT22;7099;53.922;10.728;2023-10-19T00:11:21;8.10;93.60
14049;DHT22;7099;53.922;10.728;2023-10-19T00:15:27;8.20;93.60
14049;DHT22;7099;53.922;10.728;2023-10-19T00:19:37;8.20;93.50
14049;DHT22;7099;53.922;10.728;2023-10-19T00:23:54;8.20;93.50
14049;DHT22;7099;53.922;10.728;2023-10-19T00:28:02;8.20;93.50
14049;DHT22;7099;53.922;10.728;2023-10-19T00:32:11;8.20;93.50
14049;DHT22;7099;53.922;10.728;2023-10-19T00:36:20;8.20;93.50
14049;DHT22;7099;53.922;10.728;2023-10-19T00:40:26;8.20;93.50
14049;DHT22;7099;53.922;10.728;2023-10-19T00:44:42;8.20;93.50
14049;DHT22;7099;53.922;10.728;2023-10-19T00:48:59;8.20;93.50
14049;DHT22;7099;53.922;10.728;2023-10-19T00:53:06;8.20;93.40
14049;DHT22;7099;53.922;10.728;2023-10-19T00:57:15;8.20;93.40
14049;DHT22;7099;53.922;10.728;2023-10-19T01:01:28;8.20;93.40
14049;DHT22;7099;53.922;10.728;2023-10-19T01:05:35;8.20;93.30
14049;DHT22;7099;53.922;10.728;2023-10-19T01:09:44;8.20;93.40
14049;DHT22;7099;53.922;10.728;2023-10-19T01:13:49;8.20;93.30
14049;DHT22;7099;53.922;10.728;2023-10-19T01:17:58;8.20;93.40
14049;DHT22;7099;53.922;10.728;2023-10-19T01:22:04;8.20;93.30
14049;DHT22;7099;53.922;10.728;2023-10-19T01:26:10;8.10;93.20
14049;DHT22;7099;53.922;10.728;2023-10-19T01:30:16;8.20;93.30
14049;DHT22;7099;53.922;10.728;2023-10-19T01:34:22;8.10;93.30
14049;DHT22;7099;53.922;10.728;2023-10-19T01:38:29;8.10;93.30
14049;DHT22;7099;53.922;10.728;2023-10-19T01:42:38;8.10;93.20
14049;DHT22;7099;53.922;10.728;2023-10-19T01:46:44;8.20;93.20
14049;DHT22;7099;53.922;10.728;2023-10-19T01:50:51;8.20;93.10
14049;DHT22;7099;53.922;10.728;2023-10-19T01:54:57;8.20;93.10
14049;DHT22;7099;53.922;10.728;2023-10-19T01:59:12;8.20;92.90
14049;DHT22;7099;53.922;10.728;2023-10-19T02:03:21;8.20;93.00
14049;DHT22;7099;53.922;10.728;2023-10-19T02:07:33;8.20;92.90
14049;DHT22;7099;53.922;10.728;2023-10-19T02:11:40;8.20;92.90
14049;DHT22;7099;53.922;10.728;2023-10-19T02:15:51;8.20;93.20
14049;DHT22;7099;53.922;10.728;2023-10-19T02:19:56;8.20;92.90
14049;DHT22;7099;53.922;10.728;2023-10-19T02:24:03;8.30;92.90
14049;DHT22;7099;53.922;10.728;2023-10-19T02:28:09;8.30;92.80
14049;DHT22;7099;53.922;10.728;2023-10-19T02:32:16;8.20;92.80
14049;DHT22;7099;53.922;10.728;2023-10-19T02:36:24;8.30;92.90
14049;DHT22;7099;53.922;10.728;2023-10-19T02:40:34;8.30;92.80
14049;DHT22;7099;53.922;10.728;2023-10-19T02:44:43;8.30;92.70
14049;DHT22;7099;53.922;10.728;2023-10-19T02:48:48;8.30;92.70
14049;DHT22;7099;53.922;10.728;2023-10-19T02:52:55;8.30;92.80
14049;DHT22;7099;53.922;10.728;2023-10-19T02:57:01;8.30;93.00
14049;DHT22;7099;53.922;10.728;2023-10-19T03:01:13;8.30;92.70
14049;DHT22;7099;53.922;10.728;2023-10-19T03:05:27;8.40;92.70
14049;DHT22;7099;53.922;10.728;2023-10-19T03:09:33;8.40;92.70
14049;DHT22;7099;53.922;10.728;2023-10-19T03:13:42;8.40;92.70
14049;DHT22;7099;53.922;10.728;2023-10-19T03:17:48;8.40;92.70
14049;DHT22;7099;53.922;10.728;2023-10-19T03:21:55;8.40;92.60
14049;DHT22;7099;53.922;10.728;2023-10-19T03:26:01;8.50;92.70
14049;DHT22;7099;53.922;10.728;2023-10-19T03:30:07;8.50;92.50
14049;DHT22;7099;53.922;10.728;2023-10-19T03:34:14;8.50;92.60
14049;DHT22;7099;53.922;10.728;2023-10-19T03:38:22;8.50;92.60
14049;DHT22;7099;53.922;10.728;2023-10-19T03:42:28;8.50;92.50
14049;DHT22;7099;53.922;10.728;2023-10-19T03:46:39;8.50;92.50
14049;DHT22;7099;53.922;10.728;2023-10-19T03:50:58;8.50;92.40
14049;DHT22;7099;53.922;10.728;2023-10-19T03:55:04;8.60;92.50
14049;DHT22;7099;53.922;10.728;2023-10-19T03:59:14;8.60;92.50
14049;DHT22;7099;53.922;10.728;2023-10-19T04:03:21;8.60;92.50
14049;DHT22;7099;53.922;10.728;2023-10-19T04:07:30;8.60;92.50
14049;DHT22;7099;53.922;10.728;2023-10-19T04:11:38;8.60;92.50
14049;DHT22;7099;53.922;10.728;2023-10-19T04:15:56;8.60;92.50
14049;DHT22;7099;53.922;10.728;2023-10-19T04:20:02;8.60;92.40
14049;DHT22;7099;53.922;10.728;2023-10-19T04:24:23;8.60;92.40
14049;DHT22;7099;53.922;10.728;2023-10-19T04:28:29;8.60;92.50
14049;DHT22;7099;53.922;10.728;2023-10-19T04:32:44;8.70;92.50
14049;DHT22;7099;53.922;10.728;2023-10-19T04:36:51;8.70;92.50
14049;DHT22;7099;53.922;10.728;2023-10-19T04:41:05;8.70;92.40
14049;DHT22;7099;53.922;10.728;2023-10-19T04:45:13;8.70;92.40
14049;DHT22;7099;53.922;10.728;2023-10-19T04:49:18;8.70;92.40
14049;DHT22;7099;53.922;10.728;2023-10-19T04:53:24;8.70;92.40
14049;DHT22;7099;53.922;10.728;2023-10-19T04:57:30;8.70;92.40
14049;DHT22;7099;53.922;10.728;2023-10-19T05:01:36;8.70;92.40
14049;DHT22;7099;53.922;10.728;2023-10-19T05:05:42;8.70;92.40
14049;DHT22;7099;53.922;10.728;2023-10-19T05:09:48;8.70;92.40
14049;DHT22;7099;53.922;10.728;2023-10-19T05:13:53;8.70;92.40
14049;DHT22;7099;53.922;10.728;2023-10-19T05:17:59;8.70;92.70
14049;DHT22;7099;53.922;10.728;2023-10-19T05:22:08;8.70;92.40
14049;DHT22;7099;53.922;10.728;2023-10-19T05:26:14;8.70;92.30
14049;DHT22;7099;53.922;10.728;2023-10-19T05:30:20;8.70;92.30
14049;DHT22;7099;53.922;10.728;2023-10-19T05:34:27;8.70;92.30
14049;DHT22;7099;53.922;10.728;2023-10-19T05:38:35;8.70;92.30
14049;DHT22;7099;53.922;10.728;2023-10-19T05:42:41;8.70;92.30
14049;DHT22;7099;53.922;10.728;2023-10-19T05:46:46;8.70;92.30
14049;DHT22;7099;53.922;10.728;2023-10-19T05:50:52;8.70;92.30
14049;DHT22;7099;53.922;10.728;2023-10-19T05:54:58;8.70;92.40
14049;DHT22;7099;53.922;10.728;2023-10-19T05:59:04;8.70;92.10
14049;DHT22;7099;53.922;10.728;2023-10-19T06:03:11;8.60;92.20
14049;DHT22;7099;53.922;10.728;2023-10-19T06:07:17;8.70;92.20
14049;DHT22;7099;53.922;10.728;2023-10-19T06:11:23;8.70;92.20
14049;DHT22;7099;53.922;10.728;2023-10-19T06:15:28;8.70;92.40
14049;DHT22;7099;53.922;10.728;2023-10-19T06:19:36;8.70;92.20
14049;DHT22;7099;53.922;10.728;2023-10-19T06:23:43;8.70;92.30
14049;DHT22;7099;53.922;10.728;2023-10-19T06:27:50;8.70;92.50
14049;DHT22;7099;53.922;10.728;2023-10-19T06:31:56;8.70;92.70
14049;DHT22;7099;53.922;10.728;2023-10-19T06:36:03;8.60;92.80
14049;DHT22;7099;53.922;10.728;2023-10-19T06:40:09;8.60;93.20
14049;DHT22;7099;53.922;10.728;2023-10-19T06:44:16;8.50;93.30
14049;DHT22;7099;53.922;10.728;2023-10-19T06:48:22;8.50;93.50
14049;DHT22;7099;53.922;10.728;2023-10-19T06:52:27;8.50;93.70
14049;DHT22;7099;53.922;10.728;2023-10-19T06:56:33;8.40;93.90
14049;DHT22;7099;53.922;10.728;2023-10-19T07:00:42;8.40;94.00
14049;DHT22;7099;53.922;10.728;2023-10-19T07:04:52;8.30;94.10
14049;DHT22;7099;53.922;10.728;2023-10-19T07:08:58;8.30;94.30
14049;DHT22;7099;53.922;10.728;2023-10-19T07:13:03;8.30;94.70
14049;DHT22;7099;53.922;10.728;2023-10-19T07:17:09;8.20;94.60
14049;DHT22;7099;53.922;10.728;2023-10-19T07:21:15;8.10;94.70
14049;DHT22;7099;53.922;10.728;2023-10-19T07:25:23;8.20;94.80
14049;DHT22;7099;53.922;10.728;2023-10-19T07:29:31;8.20;94.80
14049;DHT22;7099;53.922;10.728;2023-10-19T07:33:38;8.10;95.00
14049;DHT22;7099;53.922;10.728;2023-10-19T07:37:47;8.10;95.00
14049;DHT22;7099;53.922;10.728;2023-10-19T07:41:58;8.10;95.10
14049;DHT22;7099;53.922;10.728;2023-10-19T07:46:04;8.10;95.20
14049;DHT22;7099;53.922;10.728;2023-10-19T07:50:11;8.00;95.10
14049;DHT22;7099;53.922;10.728;2023-10-19T07:54:23;8.00;95.20
14049;DHT22;7099;53.922;10.728;2023-10-19T07:58:28;8.10;95.30
14049;DHT22;7099;53.922;10.728;2023-10-19T08:02:36;8.10;95.40
14049;DHT22;7099;53.922;10.728;2023-10-19T08:06:43;8.10;95.50
14049;DHT22;7099;53.922;10.728;2023-10-19T08:10:49;8.10;95.50
14049;DHT22;7099;53.922;10.728;2023-10-19T08:14:56;8.10;95.50
14049;DHT22;7099;53.922;10.728;2023-10-19T08:19:02;8.10;95.40
14049;DHT22;7099;53.922;10.728;2023-10-19T08:23:09;8.20;95.50
14049;DHT22;7099;53.922;10.728;2023-10-19T08:27:16;8.20;95.40
14049;DHT22;7099;53.922;10.728;2023-10-19T08:31:22;8.20;95.40
14049;DHT22;7099;53.922;10.728;2023-10-19T08:35:29;8.20;95.30
14049;DHT22;7099;53.922;10.728;2023-10-19T08:39:36;8.30;95.30
14049;DHT22;7099;53.922;10.728;2023-10-19T08:43:41;8.40;95.40
14049;DHT22;7099;53.922;10.728;2023-10-19T08:47:56;8.40;95.30
14049;DHT22;7099;53.922;10.728;2023-10-19T08:52:03;8.40;95.40
14049;DHT22;7099;53.922;10.728;2023-10-19T08:56:11;8.40;95.40
14049;DHT22;7099;53.922;10.728;2023-10-19T09:00:18;8.50;95.40
14049;DHT22;7099;53.922;10.728;2023-10-19T09:04:24;8.50;95.40
14049;DHT22;7099;53.922;10.728;2023-10-19T09:08:31;8.50;95.50
14049;DHT22;7099;53.922;10.728;2023-10-19T09:12:59;8.50;95.40
14049;DHT22;7099;53.922;10.728;2023-10-19T09:17:09;8.60;95.60
14049;DHT22;7099;53.922;10.728;2023-10-19T09:21:19;8.60;95.30
14049;DHT22;7099;53.922;10.728;2023-10-19T09:25:31;8.70;95.40
14049;DHT22;7099;53.922;10.728;2023-10-19T09:29:38;8.70;95.20
14049;DHT22;7099;53.922;10.728;2023-10-19T09:33:47;8.70;95.10
14049;DHT22;7099;53.922;10.728;2023-10-19T09:37:54;8.80;95.20
14049;DHT22;7099;53.922;10.728;2023-10-19T09:42:02;8.80;95.10
14049;DHT22;7099;53.922;10.728;2023-10-19T09:46:12;8.80;95.00
14049;DHT22;7099;53.922;10.728;2023-10-19T09:50:26;8.90;95.00
14049;DHT22;7099;53.922;10.728;2023-10-19T09:54:54;8.90;95.00
14049;DHT22;7099;53.922;10.728;2023-10-19T09:59:10;9.00;95.10
14049;DHT22;7099;53.922;10.728;2023-10-19T10:12:28;9.10;94.80
14049;DHT22;7099;53.922;10.728;2023-10-19T10:16:34;9.20;94.70
14049;DHT22;7099;53.922;10.728;2023-10-19T10:20:40;9.20;94.60
14049;DHT22;7099;53.922;10.728;2023-10-19T10:24:45;9.30;94.40
14049;DHT22;7099;53.922;10.728;2023-10-19T10:29:44;9.30;94.50
14049;DHT22;7099;53.922;10.728;2023-10-19T10:33:46;9.30;94.50
14049;DHT22;7099;53.922;10.728;2023-10-19T10:37:56;9.40;94.50
14049;DHT22;7099;53.922;10.728;2023-10-19T10:42:03;9.40;94.40
14049;DHT22;7099;53.922;10.728;2023-10-19T10:46:10;9.30;94.50
14049;DHT22;7099;53.922;10.728;2023-10-19T10:50:19;9.40;94.40
14049;DHT22;7099;53.922;10.728;2023-10-19T10:54:25;9.40;94.80
14049;DHT22;7099;53.922;10.728;2023-10-19T10:58:31;9.40;94.70
14049;DHT22;7099;53.922;10.728;2023-10-19T11:02:37;9.40;94.70
14049;DHT22;7099;53.922;10.728;2023-10-19T11:06:53;9.50;94.70
14049;DHT22;7099;53.922;10.728;2023-10-19T11:11:09;9.50;94.90
14049;DHT22;7099;53.922;10.728;2023-10-19T11:15:21;9.50;95.00
14049;DHT22;7099;53.922;10.728;2023-10-19T11:19:40;9.60;95.00
14049;DHT22;7099;53.922;10.728;2023-10-19T11:23:47;9.50;95.00
14049;DHT22;7099;53.922;10.728;2023-10-19T11:27:55;9.50;95.00
14049;DHT22;7099;53.922;10.728;2023-10-19T11:32:05;9.60;95.10
14049;DHT22;7099;53.922;10.728;2023-10-19T11:36:12;9.60;95.00
14049;DHT22;7099;53.922;10.728;2023-10-19T11:40:22;9.60;95.00
14049;DHT22;7099;53.922;10.728;2023-10-19T11:44:28;9.70;95.20
14049;DHT22;7099;53.922;10.728;2023-10-19T11:48:35;9.60;95.10
14049;DHT22;7099;53.922;10.728;2023-10-19T11:52:42;9.70;95.10
14049;DHT22;7099;53.922;10.728;2023-10-19T11:56:48;9.80;95.10
14049;DHT22;7099;53.922;10.728;2023-10-19T12:00:54;9.80;95.10
14049;DHT22;7099;53.922;10.728;2023-10-19T12:05:01;9.90;95.10
14049;DHT22;7099;53.922;10.728;2023-10-19T12:09:09;9.90;95.10
14049;DHT22;7099;53.922;10.728;2023-10-19T12:13:21;9.90;95.10
14049;DHT22;7099;53.922;10.728;2023-10-19T12:17:26;10.00;95.30
14049;DHT22;7099;53.922;10.728;2023-10-19T12:21:33;10.00;95.20
14049;DHT22;7099;53.922;10.728;2023-10-19T12:25:42;10.00;95.20
14049;DHT22;7099;53.922;10.728;2023-10-19T12:30:02;10.10;95.20
14049;DHT22;7099;53.922;10.728;2023-10-19T12:34:18;10.10;95.20
14049;DHT22;7099;53.922;10.728;2023-10-19T12:38:24;10.20;95.30
14049;DHT22;7099;53.922;10.728;2023-10-19T12:42:30;10.10;95.20
14049;DHT22;7099;53.922;10.728;2023-10-19T12:46:36;10.10;95.30
14049;DHT22;7099;53.922;10.728;2023-10-19T12:50:43;10.10;95.10
14049;DHT22;7099;53.922;10.728;2023-10-19T12:54:48;10.10;95.20
14049;DHT22;7099;53.922;10.728;2023-10-19T12:58:59;10.10;95.20
14049;DHT22;7099;53.922;10.728;2023-10-19T13:03:06;10.10;95.20
14049;DHT22;7099;53.922;10.728;2023-10-19T13:07:13;10.10;95.00
14049;DHT22;7099;53.922;10.728;2023-10-19T13:11:18;10.10;95.10
14049;DHT22;7099;53.922;10.728;2023-10-19T13:15:24;10.10;95.00
14049;DHT22;7099;53.922;10.728;2023-10-19T13:19:36;10.10;95.00
14049;DHT22;7099;53.922;10.728;2023-10-19T13:23:42;10.10;94.90
14049;DHT22;7099;53.922;10.728;2023-10-19T13:27:49;10.10;95.00
14049;DHT22;7099;53.922;10.728;2023-10-19T13:31:55;10.10;95.00
14049;DHT22;7099;53.922;10.728;2023-10-19T13:36:01;10.10;95.00
14049;DHT22;7099;53.922;10.728;2023-10-19T13:40:07;10.10;95.00
14049;DHT22;7099;53.922;10.728;2023-10-19T13:44:14;10.10;95.00
14049;DHT22;7099;53.922;10.728;2023-10-19T13:48:20;10.10;95.00
14049;DHT22;7099;53.922;10.728;2023-10-19T13:52:26;10.10;95.00
14049;DHT22;7099;53.922;10.728;2023-10-19T13:56:31;10.10;95.10
14049;DHT22;7099;53.922;10.728;2023-10-19T14:00:37;10.10;95.00
14049;DHT22;7099;53.922;10.728;2023-10-19T14:04:46;10.10;94.90
14049;DHT22;7099;53.922;10.728;2023-10-19T14:08:52;10.10;94.90
14049;DHT22;7099;53.922;10.728;2023-10-19T14:12:58;10.10;94.90
14049;DHT22;7099;53.922;10.728;2023-10-19T14:17:04;10.00;94.80
14049;DHT22;7099;53.922;10.728;2023-10-19T14:21:12;10.00;94.80
14049;DHT22;7099;53.922;10.728;2023-10-19T14:25:19;10.00;94.90
14049;DHT22;7099;53.922;10.728;2023-10-19T14:29:29;10.00;94.80
14049;DHT22;7099;53.922;10.728;2023-10-19T14:33:35;10.00;94.90
14049;DHT22;7099;53.922;10.728;2023-10-19T14:37:46;10.00;94.90
14049;DHT22;7099;53.922;10.728;2023-10-19T14:41:55;10.00;94.90
14049;DHT22;7099;53.922;10.728;2023-10-19T14:46:01;9.90;94.80
14049;DHT22;7099;53.922;10.728;2023-10-19T14:50:12;9.90;94.90
14049;DHT22;7099;53.922;10.728;2023-10-19T14:54:19;9.90;94.80
14049;DHT22;7099;53.922;10.728;2023-10-19T14:58:25;10.00;94.80
14049;DHT22;7099;53.922;10.728;2023-10-19T15:02:31;9.90;94.80
14049;DHT22;7099;53.922;10.728;2023-10-19T15:06:37;9.90;94.90
14049;DHT22;7099;53.922;10.728;2023-10-19T15:10:44;9.90;94.90
14049;DHT22;7099;53.922;10.728;2023-10-19T15:14:49;9.90;94.80
14049;DHT22;7099;53.922;10.728;2023-10-19T15:18:55;9.90;94.90
14049;DHT22;7099;53.922;10.728;2023-10-19T15:23:01;9.80;95.00
14049;DHT22;7099;53.922;10.728;2023-10-19T15:27:06;9.80;95.00
14049;DHT22;7099;53.922;10.728;2023-10-19T15:31:12;9.80;95.00
14049;DHT22;7099;53.922;10.728;2023-10-19T15:35:23;9.80;95.00
14049;DHT22;7099;53.922;10.728;2023-10-19T15:39:33;9.80;95.00
14049;DHT22;7099;53.922;10.728;2023-10-19T15:43:44;9.80;95.10
14049;DHT22;7099;53.922;10.728;2023-10-19T15:47:53;9.80;95.30
14049;DHT22;7099;53.922;10.728;2023-10-19T15:52:00;9.70;95.40
14049;DHT22;7099;53.922;10.728;2023-10-19T15:56:06;9.70;95.50
14049;DHT22;7099;53.922;10.728;2023-10-19T16:00:15;9.70;95.60
14049;DHT22;7099;53.922;10.728;2023-10-19T16:04:21;9.60;95.70
14049;DHT22;7099;53.922;10.728;2023-10-19T16:08:33;9.50;95.60
14049;DHT22;7099;53.922;10.728;2023-10-19T16:12:39;9.60;95.70
14049;DHT22;7099;53.922;10.728;2023-10-19T16:16:46;9.50;95.80
14049;DHT22;7099;53.922;10.728;2023-10-19T16:20:54;9.50;95.80
14049;DHT22;7099;53.922;10.728;2023-10-19T16:25:05;9.50;95.80
14049;DHT22;7099;53.922;10.728;2023-10-19T16:29:12;9.50;96.00
14049;DHT22;7099;53.922;10.728;2023-10-19T16:33:21;9.40;95.90
14049;DHT22;7099;53.922;10.728;2023-10-19T16:37:26;9.40;95.90
14049;DHT22;7099;53.922;10.728;2023-10-19T16:41:37;9.30;95.90
14049;DHT22;7099;53.922;10.728;2023-10-19T16:45:42;9.20;96.10
14049;DHT22;7099;53.922;10.728;2023-10-19T16:49:48;9.20;96.10
14049;DHT22;7099;53.922;10.728;2023-10-19T16:53:57;9.20;96.10
14049;DHT22;7099;53.922;10.728;2023-10-19T16:58:03;9.10;96.10
14049;DHT22;7099;53.922;10.728;2023-10-19T17:02:09;9.10;96.30
14049;DHT22;7099;53.922;10.728;2023-10-19T17:06:15;9.00;96.40
14049;DHT22;7099;53.922;10.728;2023-10-19T17:10:21;8.90;96.50
14049;DHT22;7099;53.922;10.728;2023-10-19T17:14:27;8.90;96.60
14049;DHT22;7099;53.922;10.728;2023-10-19T17:18:32;8.90;96.60
14049;DHT22;7099;53.922;10.728;2023-10-19T17:22:39;8.90;96.60
14049;DHT22;7099;53.922;10.728;2023-10-19T17:26:44;8.90;96.60
14049;DHT22;7099;53.922;10.728;2023-10-19T17:30:50;8.90;96.70
14049;DHT22;7099;53.922;10.728;2023-10-19T17:34:56;8.90;96.80
14049;DHT22;7099;53.922;10.728;2023-10-19T17:39:02;8.90;97.00
14049;DHT22;7099;53.922;10.728;2023-10-19T17:43:08;8.90;96.80
14049;DHT22;7099;53.922;10.728;2023-10-19T17:47:14;8.90;96.90
14049;DHT22;7099;53.922;10.728;2023-10-19T17:51:20;8.90;96.90
14049;DHT22;7099;53.922;10.728;2023-10-19T17:55:26;8.90;97.00
14049;DHT22;7099;53.922;10.728;2023-10-19T17:59:32;8.80;96.90
14049;DHT22;7099;53.922;10.728;2023-10-19T18:03:38;8.90;97.00
14049;DHT22;7099;53.922;10.728;2023-10-19T18:07:45;8.80;97.10
14049;DHT22;7099;53.922;10.728;2023-10-19T18:11:50;8.80;97.10
14049;DHT22;7099;53.922;10.728;2023-10-19T18:15:56;8.90;97.00
14049;DHT22;7099;53.922;10.728;2023-10-19T18:20:05;8.90;97.00
14049;DHT22;7099;53.922;10.728;2023-10-19T18:24:13;8.90;97.10
14049;DHT22;7099;53.922;10.728;2023-10-19T18:28:19;8.90;97.00
14049;DHT22;7099;53.922;10.728;2023-10-19T18:32:25;8.90;97.20
14049;DHT22;7099;53.922;10.728;2023-10-19T18:36:31;8.90;97.00
14049;DHT22;7099;53.922;10.728;2023-10-19T18:40:39;8.90;97.00
14049;DHT22;7099;53.922;10.728;2023-10-19T18:44:46;8.90;97.00
14049;DHT22;7099;53.922;10.728;2023-10-19T18:48:51;8.90;97.00
14049;DHT22;7099;53.922;10.728;2023-10-19T18:52:57;8.90;97.00
14049;DHT22;7099;53.922;10.728;2023-10-19T18:57:03;8.90;97.00
14049;DHT22;7099;53.922;10.728;2023-10-19T19:01:10;8.90;97.00
14049;DHT22;7099;53.922;10.728;2023-10-19T19:05:17;8.90;97.00
14049;DHT22;7099;53.922;10.728;2023-10-19T19:09:22;8.90;97.00
14049;DHT22;7099;53.922;10.728;2023-10-19T19:13:28;8.90;97.00
14049;DHT22;7099;53.922;10.728;2023-10-19T19:17:34;8.90;96.90
14049;DHT22;7099;53.922;10.728;2023-10-19T19:21:40;8.90;96.80
14049;DHT22;7099;53.922;10.728;2023-10-19T19:25:46;8.90;96.80
14049;DHT22;7099;53.922;10.728;2023-10-19T19:29:52;8.90;97.00
14049;DHT22;7099;53.922;10.728;2023-10-19T19:33:57;8.80;96.80
14049;DHT22;7099;53.922;10.728;2023-10-19T19:38:03;8.80;96.80
14049;DHT22;7099;53.922;10.728;2023-10-19T19:42:09;8.80;96.70
14049;DHT22;7099;53.922;10.728;2023-10-19T19:46:15;8.90;96.70
14049;DHT22;7099;53.922;10.728;2023-10-19T19:50:22;8.80;96.60
14049;DHT22;7099;53.922;10.728;2023-10-19T19:54:27;8.90;96.70
14049;DHT22;7099;53.922;10.728;2023-10-19T19:58:33;8.90;96.60
14049;DHT22;7099;53.922;10.728;2023-10-19T20:02:39;8.90;96.60
14049;DHT22;7099;53.922;10.728;2023-10-19T20:06:46;8.80;96.60
14049;DHT22;7099;53.922;10.728;2023-10-19T20:10:51;8.80;96.60
14049;DHT22;7099;53.922;10.728;2023-10-19T20:14:58;8.80;96.60
14049;DHT22;7099;53.922;10.728;2023-10-19T20:19:04;8.80;96.60
14049;DHT22;7099;53.922;10.728;2023-10-19T20:23:09;8.80;96.50
14049;DHT22;7099;53.922;10.728;2023-10-19T20:27:15;8.80;96.50
14049;DHT22;7099;53.922;10.728;2023-10-19T20:31:21;8.80;96.40
14049;DHT22;7099;53.922;10.728;2023-10-19T20:35:33;8.80;96.50
14049;DHT22;7099;53.922;10.728;2023-10-19T20:39:38;8.70;96.50
14049;DHT22;7099;53.922;10.728;2023-10-19T20:43:46;8.70;96.50
14049;DHT22;7099;53.922;10.728;2023-10-19T20:47:53;8.70;96.60
14049;DHT22;7099;53.922;10.728;2023-10-19T20:52:03;8.70;96.50
14049;DHT22;7099;53.922;10.728;2023-10-19T20:56:10;8.70;96.60
14049;DHT22;7099;53.922;10.728;2023-10-19T21:00:16;8.70;96.70
14049;DHT22;7099;53.922;10.728;2023-10-19T21:04:25;8.70;96.70
14049;DHT22;7099;53.922;10.728;2023-10-19T21:08:31;8.60;96.70
14049;DHT22;7099;53.922;10.728;2023-10-19T21:12:40;8.60;96.90
14049;DHT22;7099;53.922;10.728;2023-10-19T21:16:46;8.60;96.90
14049;DHT22;7099;53.922;10.728;2023-10-19T21:20:55;8.60;97.00
14049;DHT22;7099;53.922;10.728;2023-10-19T21:25:03;8.60;97.10
14049;DHT22;7099;53.922;10.728;2023-10-19T21:29:09;8.50;97.00
14049;DHT22;7099;53.922;10.728;2023-10-19T21:33:16;8.60;97.10
14049;DHT22;7099;53.922;10.728;2023-10-19T21:37:22;8.50;97.20
14049;DHT22;7099;53.922;10.728;2023-10-19T21:41:28;8.50;97.20
14049;DHT22;7099;53.922;10.728;2023-10-19T21:45:34;8.50;97.20
14049;DHT22;7099;53.922;10.728;2023-10-19T21:49:41;8.50;97.30
14049;DHT22;7099;53.922;10.728;2023-10-19T21:53:47;8.50;97.30
14049;DHT22;7099;53.922;10.728;2023-10-19T21:57:53;8.40;97.50
14049;DHT22;7099;53.922;10.728;2023-10-19T22:01:59;8.40;97.50
14049;DHT22;7099;53.922;10.728;2023-10-19T22:06:05;8.40;97.40
14049;DHT22;7099;53.922;10.728;2023-10-19T22:10:10;8.40;97.40
14049;DHT22;7099;53.922;10.728;2023-10-19T22:14:16;8.40;97.50
14049;DHT22;7099;53.922;10.728;2023-10-19T22:18:22;8.40;97.40
14049;DHT22;7099;53.922;10.728;2023-10-19T22:22:28;8.40;97.40
14049;DHT22;7099;53.922;10.728;2023-10-19T22:26:34;8.40;97.50
14049;DHT22;7099;53.922;10.728;2023-10-19T22:30:40;8.30;97.60
14049;DHT22;7099;53.922;10.728;2023-10-19T22:34:47;8.30;97.60
14049;DHT22;7099;53.922;10.728;2023-10-19T22:38:52;8.30;97.60
14049;DHT22;7099;53.922;10.728;2023-10-19T22:42:59;8.30;97.60
14049;DHT22;7099;53.922;10.728;2023-10-19T22:47:07;8.30;97.60
14049;DHT22;7099;53.922;10.728;2023-10-19T22:51:13;8.30;97.70
14049;DHT22;7099;53.922;10.728;2023-10-19T22:55:19;8.30;97.60
14049;DHT22;7099;53.922;10.728;2023-10-19T22:59:26;8.30;97.70
14049;DHT22;7099;53.922;10.728;2023-10-19T23:03:32;8.30;97.70
14049;DHT22;7099;53.922;10.728;2023-10-19T23:07:38;8.20;97.60
14049;DHT22;7099;53.922;10.728;2023-10-19T23:11:44;8.30;97.60
14049;DHT22;7099;53.922;10.728;2023-10-19T23:15:57;8.30;97.70
14049;DHT22;7099;53.922;10.728;2023-10-19T23:20:05;8.30;97.70
14049;DHT22;7099;53.922;10.728;2023-10-19T23:24:25;8.30;97.80
14049;DHT22;7099;53.922;10.728;2023-10-19T23:28:35;8.30;97.70
14049;DHT22;7099;53.922;10.728;2023-10-19T23:32:41;8.20;97.70
14049;DHT22;7099;53.922;10.728;2023-10-19T23:36:47;8.20;97.60
14049;DHT22;7099;53.922;10.728;2023-10-19T23:40:53;8.20;97.60
14049;DHT22;7099;53.922;10.728;2023-10-19T23:44:58;8.20;97.50
14049;DHT22;7099;53.922;10.728;2023-10-19T23:49:04;8.20;97.60
14049;DHT22;7099;53.922;10.728;2023-10-19T23:53:10;8.20;97.60
14049;DHT22;7099;53.922;10.728;2023-10-19T23:57:16;8.20;97.50
